WebCam (dist. 5.5Km Est) Villalvernia  WebCam (dist. 5.5Km Est) Villalvernia


WebCam (dist. 7Km Ovest) Basaluzzo  WebCam (dist. 7Km Ovest) Basaluzzo


WebCam (dist. 15Km Sud) Carrosio  WebCam (dist. 15Km Sud) Carrosio


WebCam (dist. 16Km Nord) Pietra Marazzi  WebCam (dist. 16Km Nord) Pietra Marazzi



Avvisi EUMETNET-METEOalarm

Non sono previsti fenomeni meteo rilevanti    Non sono presenti avvisi di allerta meteo

NOTIZIE METEO

Report METAR

   
LIMV - Alessandria
Dati ricevuti: 18-01-2018 09:55
DATI Obsoleti
Poche nuvole  
Poche nuvole  
   Vento: Variabile Calma
Vento: Variabile Calma
Temperatura e Condizioni Meteo: 6°C
P.to Rugiada: -2°C
Umidità: 57%
Pressione: 1015 hPa
Copertura nuvolosa: Few Clouds
Visibilità: oltre 10 km
Dettagli cop. nuvolosa: Poche nuvole 1000 ft
LIMV 180855Z /////KT 9999 FEW010 06/M02 Q1015
LIMJ - Genova
Dati ricevuti: 19-01-2018 13:50
Parz. nuvoloso  
Parz. nuvoloso  
   Vento: Variabile 3.7 km/h
Vento: Variabile 3.7 km/h
Temperatura e Condizioni Meteo: 14°C
P.to Rugiada: 9°C
Umidità: 72%
Pressione: 1009 hPa
Copertura nuvolosa: Partly Cloudy
Visibilità: oltre 10 km
Dettagli cop. nuvolosa: Poche nuvole 2500 ft,
Parz. nuvoloso 3000 ft
LIMJ 191250Z VRB02KT 9999 FEW025 SCT030 14/09 Q1009
LIML - Milano
Dati ricevuti: 19-01-2018 13:50
Poche nuvole  
Poche nuvole  
   Vento: NO 7.4 km/h
Vento: NO 7.4 km/h
Temperatura e Condizioni Meteo: 12°C
P.to Rugiada: 1°C
Umidità: 47%
Pressione: 1008 hPa
Copertura nuvolosa: Few Clouds
Visibilità: oltre 10 km
Dettagli cop. nuvolosa: Poche nuvole 8000 ft
LIML 191250Z 31004KT 260V020 9999 FEW080 12/01 Q1008 NOSIG
LIMF - Torino
Dati ricevuti: 19-01-2018 13:50
Sereno  
Sereno  
   Vento: NO 37 km/h
Vento: NO 37 km/h
Temperatura e Condizioni Meteo: 15°C
P.to Rugiada: -13°C
Umidità: 13%
Pressione: 1008 hPa
Visibilità: oltre 10 km
Dettagli cop. nuvolosa: Sereno ft
LIMF 191250Z 32020KT CAVOK 15/M13 Q1008
LIRA - Roma
Dati ricevuti: 19-01-2018 13:50
Molto nuvoloso  
Molto nuvoloso  
   Vento: S 16.7 km/h
Vento: S 16.7 km/h
Temperatura e Condizioni Meteo: 12°C
P.to Rugiada: 10°C
Umidità: 88%
Pressione: 1013 hPa
Copertura nuvolosa: Mostly Cloudy
Visibilità: 9 km
Dettagli cop. nuvolosa: Parz. nuvoloso 2000 ft,
Molto nuvoloso 5000 ft
LIRA 191250Z 16009KT 9000 SCT020 BKN050 12/10 Q1013
LICJ - Palermo
Dati ricevuti: 19-01-2018 13:50
Sereno  
Sereno  
   Vento: S 31.5 km/h
Vento: S 31.5 km/h
Temperatura e Condizioni Meteo: 16°C
P.to Rugiada: 8°C
Umidità: 59%
Pressione: 1016 hPa
Visibilità: oltre 10 km
Dettagli cop. nuvolosa: Sereno ft
LICJ 191250Z 21017KT CAVOK 16/08 Q1016

Script sviluppato da  Saratoga-weather.org Adattato per il modello da  Weerstation Leuven

Potete trovare le nostre informazioni meteo anche su:

Meteonetwork

Linea Meteo

Weather Underground

AWEKAS

European Weather Network

PWS Weather

WeatherCloud

Citizen Weather Observer Program (CWOP)

Strumentazione in uso:

Meteo-stazione
Oregon Scientific WMR300

Meteo-programma
Weather Display

Meteo-server
Samsung N220

Oregon Scientific WMR300

Weather Display

Samsung N220


Banda Musicale Pozzolese


<